^^
Your Local Weather - Clay, NY Station Historical Data
Daily Summary for January 12, 2017 Units:  Metric    English   Both
« Previous Day
Next Day »
Daily Weekly Monthly Yearly Custom
  High: Low: Average:
Temperature: 13 °C 1.7 °C 8.5 °C
Dew Point: 9.9 °C 0.3 °C 5.8 °C
Humidity: 93% 73% 83%
Wind Speed: 19.3km/h 0km/h 7.2km/h
Wind Gust: 30.6km/h - -
Wind- - SW
Pressure: 1021.2 hPa 1007 hPa -
Precipitation: 10.41 mm    
Historical Graphs
 
 
Tabular Data for January 12, 2017
Time Temperature Dew Point Pressure Wind Wind Speed Wind Gust Humidity Rainfall Rate (Hourly) solar
00:04 8.9 °C 4.3 °C 1011.1 hPa SE 17.7 km/h 24.1 km/h 73% 0 mm 0 W/m2
00:10 8.8 °C 4.4 °C 1010.7 hPa SSE 19.3 km/h 30.6 km/h 74% 0 mm 0 W/m2
00:16 8.7 °C 4.3 °C 1010.4 hPa South 19.3 km/h 30.6 km/h 74% 0 mm 0 W/m2
00:22 8.6 °C 4.4 °C 1010.4 hPa SSE 16.1 km/h 17.7 km/h 75% 0 mm 0 W/m2
00:28 8.6 °C 4.4 °C 1010.4 hPa SW 12.9 km/h 17.7 km/h 75% 0 mm 0 W/m2
00:34 8.7 °C 4.5 °C 1010.4 hPa SSE 16.1 km/h 20.9 km/h 75% 0 mm 0 W/m2
00:40 8.8 °C 4.6 °C 1010.4 hPa SSE 16.1 km/h 19.3 km/h 75% 0 mm 0 W/m2
00:46 8.8 °C 4.7 °C 1010.4 hPa South 16.1 km/h 19.3 km/h 75% 0 mm 0 W/m2
00:52 8.8 °C 4.6 °C 1010.4 hPa South 17.7 km/h 17.7 km/h 75% 0 mm 0 W/m2
00:58 8.7 °C 4.5 °C 1010.4 hPa South 16.1 km/h 17.7 km/h 75% 0 mm 0 W/m2
01:04 8.6 °C 4.4 °C 1010.4 hPa South 14.5 km/h 25.7 km/h 75% 0 mm 0 W/m2
01:10 8.7 °C 4.7 °C 1010.4 hPa South 16.1 km/h 16.1 km/h 76% 0 mm 0 W/m2
01:16 8.4 °C 4.7 °C 1010 hPa SSE 16.1 km/h 19.3 km/h 77% 0 mm 0 W/m2
01:22 8.4 °C 4.6 °C 1010 hPa SE 12.9 km/h 14.5 km/h 77% 0 mm 0 W/m2
01:28 8.3 °C 4.5 °C 1010 hPa South 12.9 km/h 14.5 km/h 77% 0 mm 0 W/m2
01:34 8.3 °C 4.6 °C 1009.7 hPa SSE 11.3 km/h 12.9 km/h 77% 0 mm 0 W/m2
01:40 8.2 °C 4.4 °C 1009.7 hPa South 8 km/h 8 km/h 77% 0 mm 0 W/m2
01:46 8.1 °C 4.5 °C 1009.7 hPa South 6.4 km/h 9.7 km/h 78% 0 mm 0 W/m2
01:52 8.4 °C 4.8 °C 1009.7 hPa SSW 8 km/h 9.7 km/h 78% 0 mm 0 W/m2
01:58 8.6 °C 5.1 °C 1009.7 hPa SSE 8 km/h 19.3 km/h 79% 0 mm 0 W/m2
02:04 8.4 °C 5.3 °C 1009.4 hPa South 11.3 km/h 11.3 km/h 81% 3.3 mm 0 W/m2
02:10 8.2 °C 5.3 °C 1009.4 hPa South 11.3 km/h 11.3 km/h 82% 2.29 mm 0 W/m2
02:16 8.2 °C 5.4 °C 1009.4 hPa South 9.7 km/h 11.3 km/h 83% 1.27 mm 0 W/m2
02:22 8.2 °C 5.4 °C 1009.4 hPa South 8 km/h 9.7 km/h 83% 0 mm 0 W/m2
02:28 8.3 °C 5.6 °C 1009.4 hPa South 8 km/h 11.3 km/h 83% 0 mm 0 W/m2
02:34 8.3 °C 5.6 °C 1009.4 hPa WSW 8 km/h 8 km/h 83% 0 mm 0 W/m2
02:40 8.3 °C 5.6 °C 1009.4 hPa SE 8 km/h 8 km/h 83% 0 mm 0 W/m2
02:46 8.4 °C 5.7 °C 1009.4 hPa South 8 km/h 8 km/h 83% 0 mm 0 W/m2
02:52 8.5 °C 5.8 °C 1009.4 hPa South 8 km/h 9.7 km/h 83% 0 mm 0 W/m2
02:58 8.4 °C 5.7 °C 1009 hPa South 6.4 km/h 9.7 km/h 83% 0 mm 0 W/m2
03:04 8.6 °C 5.9 °C 1008.7 hPa South 8 km/h 8 km/h 83% 0 mm 0 W/m2
03:10 8.6 °C 5.9 °C 1008.7 hPa South 8 km/h 11.3 km/h 83% 0 mm 0 W/m2
03:16 8.6 °C 5.8 °C 1008.4 hPa South 8 km/h 20.9 km/h 83% 0 mm 0 W/m2
03:22 8.4 °C 5.7 °C 1008.4 hPa SSE 8 km/h 9.7 km/h 83% 0 mm 0 W/m2
03:28 8.6 °C 5.8 °C 1008.4 hPa SSE 6.4 km/h 9.7 km/h 83% 0 mm 0 W/m2
03:34 8.6 °C 5.8 °C 1008 hPa South 4.8 km/h 11.3 km/h 83% 0 mm 0 W/m2
03:40 8.7 °C 5.9 °C 1007.7 hPa East 4.8 km/h 12.9 km/h 83% 0 mm 0 W/m2
03:46 8.9 °C 6 °C 1007.7 hPa South 8 km/h 17.7 km/h 82% 0 mm 0 W/m2
03:52 9.1 °C 6.2 °C 1007.7 hPa SSE 8 km/h 11.3 km/h 82% 0 mm 0 W/m2
03:58 9.5 °C 6.4 °C 1007.3 hPa SSE 9.7 km/h 17.7 km/h 81% 0 mm 0 W/m2
04:04 9.9 °C 6.6 °C 1007.7 hPa SSE 11.3 km/h 11.3 km/h 80% 0 mm 0 W/m2
04:10 10.2 °C 6.7 °C 1007.3 hPa WSW 11.3 km/h 19.3 km/h 79% 0 mm 0 W/m2
04:16 10.5 °C 6.8 °C 1007.3 hPa South 11.3 km/h 20.9 km/h 78% 0 mm 0 W/m2
04:22 10.7 °C 6.8 °C 1007.3 hPa SW 14.5 km/h 17.7 km/h 77% 0 mm 0 W/m2
04:28 10.8 °C 6.9 °C 1007.3 hPa SSW 12.9 km/h 17.7 km/h 77% 0 mm 0 W/m2
04:34 11.1 °C 7.1 °C 1007.3 hPa WSW 14.5 km/h 24.1 km/h 76% 0 mm 0 W/m2
04:40 11.1 °C 7 °C 1007.7 hPa South 12.9 km/h 12.9 km/h 76% 0 mm 0 W/m2
04:46 10.9 °C 6.9 °C 1007.3 hPa SSW 11.3 km/h 12.9 km/h 76% 0 mm 0 W/m2
04:52 11.1 °C 7 °C 1007.3 hPa South 11.3 km/h 19.3 km/h 76% 0 mm 0 W/m2
04:58 11.1 °C 7.1 °C 1007.3 hPa WSW 12.9 km/h 19.3 km/h 76% 0 mm 0 W/m2
05:04 11.2 °C 7.1 °C 1007.3 hPa WSW 12.9 km/h 25.7 km/h 76% 0 mm 0 W/m2
05:10 11.2 °C 7.2 °C 1007.3 hPa SSW 11.3 km/h 14.5 km/h 76% 0 mm 0 W/m2
05:16 11.3 °C 7.2 °C 1007.3 hPa SSW 11.3 km/h 14.5 km/h 76% 0 mm 0 W/m2
05:22 11.3 °C 7.2 °C 1007.3 hPa SW 11.3 km/h 12.9 km/h 76% 0 mm 0 W/m2
05:28 11.3 °C 7.3 °C 1007.3 hPa SSE 11.3 km/h 12.9 km/h 76% 0 mm 0 W/m2
05:34 11.4 °C 7.3 °C 1007.3 hPa South 9.7 km/h 16.1 km/h 76% 0 mm 0 W/m2
05:40 11.5 °C 7.4 °C 1007.3 hPa SW 11.3 km/h 11.3 km/h 76% 0 mm 0 W/m2
05:46 11.4 °C 7.3 °C 1007.3 hPa SSE 9.7 km/h 11.3 km/h 76% 0 mm 0 W/m2
05:52 11.5 °C 7.4 °C 1007.3 hPa SSW 11.3 km/h 22.5 km/h 76% 0 mm 0 W/m2
05:58 11.5 °C 7.4 °C 1007.3 hPa SSE 11.3 km/h 22.5 km/h 76% 0 mm 0 W/m2
06:04 11.5 °C 7.4 °C 1007.3 hPa SW 11.3 km/h 17.7 km/h 76% 0 mm 0 W/m2
06:10 11.5 °C 7.4 °C 1007.3 hPa WSW 11.3 km/h 11.3 km/h 76% 0 mm 0 W/m2
06:16 11.6 °C 7.4 °C 1007 hPa SSE 11.3 km/h 12.9 km/h 76% 0 mm 0 W/m2
06:22 11.6 °C 7.3 °C 1007 hPa SE 14.5 km/h 16.1 km/h 75% 0 mm 0 W/m2
06:28 11.7 °C 7.4 °C 1007 hPa SSE 12.9 km/h 16.1 km/h 75% 0 mm 0 W/m2
06:34 11.7 °C 7.4 °C 1007.3 hPa SSW 11.3 km/h 16.1 km/h 75% 0 mm 0 W/m2
06:40 11.7 °C 7.6 °C 1007.3 hPa SW 11.3 km/h 11.3 km/h 76% 0 mm 0 W/m2
06:46 11.8 °C 7.7 °C 1007.7 hPa SW 12.9 km/h 19.3 km/h 76% 0 mm 0 W/m2
06:52 11.7 °C 7.6 °C 1007.3 hPa SW 12.9 km/h 12.9 km/h 76% 0 mm 0 W/m2
06:58 11.6 °C 7.7 °C 1007.3 hPa SSW 11.3 km/h 16.1 km/h 77% 0 mm 0 W/m2
07:04 11.6 °C 7.7 °C 1007.3 hPa SSE 9.7 km/h 16.1 km/h 77% 0 mm 0 W/m2
07:10 11.7 °C 7.6 °C 1007.3 hPa SSW 9.7 km/h 11.3 km/h 76% 0 mm 0 W/m2
07:16 11.7 °C 7.6 °C 1007.3 hPa SSW 9.7 km/h 11.3 km/h 76% 0 mm 0 W/m2
07:22 11.7 °C 7.6 °C 1007.3 hPa SW 9.7 km/h 11.3 km/h 76% 0 mm 0 W/m2
07:28 11.7 °C 7.8 °C 1007.7 hPa South 9.7 km/h 12.9 km/h 77% 0 mm 0 W/m2
07:34 11.7 °C 7.9 °C 1007.3 hPa SW 9.7 km/h 14.5 km/h 78% 0 mm 0 W/m2
07:40 11.6 °C 7.8 °C 1007.3 hPa SSE 11.3 km/h 11.3 km/h 78% 0 mm 0 W/m2
07:46 11.5 °C 7.8 °C 1007.7 hPa SSW 11.3 km/h 20.9 km/h 78% 0 mm 0 W/m2
07:52 11.5 °C 7.8 °C 1007.7 hPa SSW 9.7 km/h 12.9 km/h 78% 0 mm 7 W/m2
07:58 11.6 °C 7.8 °C 1007.7 hPa SSE 9.7 km/h 12.9 km/h 78% 0 mm 14 W/m2
08:04 11.7 °C 7.9 °C 1007.7 hPa SSW 9.7 km/h 20.9 km/h 78% 0 mm 18 W/m2
08:10 11.8 °C 7.9 °C 1007.7 hPa SSE 11.3 km/h 11.3 km/h 77% 0 mm 18 W/m2
08:16 11.9 °C 8 °C 1007.7 hPa South 11.3 km/h 19.3 km/h 77% 0 mm 16 W/m2
08:22 12.1 °C 8.2 °C 1008 hPa South 9.7 km/h 9.7 km/h 77% 0 mm 21 W/m2
08:28 12.2 °C 8.3 °C 1008 hPa South 9.7 km/h 12.9 km/h 77% 0 mm 19 W/m2
08:34 12.3 °C 8.3 °C 1008 hPa SW 11.3 km/h 14.5 km/h 77% 0 mm 18 W/m2
08:40 12.4 °C 8.3 °C 1008 hPa SW 9.7 km/h 9.7 km/h 76% 0 mm 21 W/m2
08:46 12.4 °C 8.3 °C 1008 hPa SW 9.7 km/h 14.5 km/h 76% 0 mm 26 W/m2
08:52 12.6 °C 8.4 °C 1008 hPa SSW 9.7 km/h 11.3 km/h 76% 0 mm 35 W/m2
08:58 12.6 °C 8.5 °C 1008 hPa SW 9.7 km/h 19.3 km/h 76% 0 mm 33 W/m2
09:04 12.7 °C 8.3 °C 1008.4 hPa SSW 9.7 km/h 9.7 km/h 75% 0 mm 28 W/m2
09:10 12.6 °C 8.5 °C 1008 hPa SSW 9.7 km/h 9.7 km/h 76% 0 mm 28 W/m2
09:16 12.7 °C 8.6 °C 1008.4 hPa SSW 9.7 km/h 16.1 km/h 76% 0 mm 58 W/m2
09:22 12.7 °C 8.6 °C 1008.4 hPa South 8 km/h 17.7 km/h 76% 0 mm 74 W/m2
09:28 12.7 °C 8.6 °C 1008.4 hPa SSW 8 km/h 17.7 km/h 76% 0 mm 58 W/m2
09:36 12.8 °C 8.7 °C 1008.7 hPa SSE 8 km/h 9.7 km/h 76% 0 mm 49 W/m2
09:42 12.8 °C 8.7 °C 1008.7 hPa South 8 km/h 9.7 km/h 76% 0 mm 49 W/m2
09:48 12.8 °C 8.7 °C 1008.7 hPa SSE 6.4 km/h 9.7 km/h 76% 0 mm 72 W/m2
09:54 12.8 °C 8.7 °C 1008.7 hPa SSE 6.4 km/h 6.4 km/h 76% 0 mm 74 W/m2
10:00 13 °C 8.7 °C 1008.7 hPa South 8 km/h 11.3 km/h 75% 0 mm 67 W/m2
10:06 13 °C 8.7 °C 1009 hPa South 9.7 km/h 11.3 km/h 75% 0 mm 56 W/m2
10:12 12.9 °C 8.6 °C 1008.7 hPa SSW 8 km/h 9.7 km/h 75% 0 mm 49 W/m2
10:18 12.9 °C 8.6 °C 1009 hPa South 6.4 km/h 9.7 km/h 75% 0 mm 47 W/m2
10:24 12.8 °C 8.5 °C 1009 hPa South 4.8 km/h 6.4 km/h 75% 0 mm 32 W/m2
10:30 12.7 °C 8.6 °C 1009 hPa SSE 4.8 km/h 9.7 km/h 76% 0 mm 26 W/m2
10:36 12.4 °C 8.5 °C 1009.4 hPa South 6.4 km/h 9.7 km/h 77% 0 mm 23 W/m2
10:42 12.4 °C 8.4 °C 1009 hPa South 4.8 km/h 9.7 km/h 77% 0 mm 30 W/m2
10:48 12.4 °C 8.4 °C 1009 hPa South 6.4 km/h 9.7 km/h 77% 0 mm 53 W/m2
10:54 12.4 °C 8.4 °C 1009 hPa SSE 4.8 km/h 9.7 km/h 77% 0 mm 49 W/m2
11:00 12.3 °C 8.4 °C 1009.4 hPa South 4.8 km/h 4.8 km/h 77% 0 mm 63 W/m2
11:08 12.2 °C 8.5 °C 1009 hPa South 6.4 km/h 9.7 km/h 78% 0 mm 67 W/m2
11:14 12.2 °C 8.6 °C 1009 hPa South 6.4 km/h 9.7 km/h 79% 0 mm 53 W/m2
11:20 12.1 °C 8.6 °C 1008.7 hPa SSW 6.4 km/h 6.4 km/h 79% 0 mm 47 W/m2
11:26 12.1 °C 8.7 °C 1008.7 hPa South 6.4 km/h 6.4 km/h 80% 0 mm 53 W/m2
11:32 12 °C 8.7 °C 1008.7 hPa South 6.4 km/h 8 km/h 80% 0 mm 37 W/m2
11:38 11.9 °C 8.6 °C 1008.7 hPa SW 6.4 km/h 9.7 km/h 80% 0 mm 44 W/m2
11:46 11.9 °C 8.6 °C 1008.7 hPa South 6.4 km/h 9.7 km/h 80% 0 mm 60 W/m2
11:52 11.9 °C 8.6 °C 1008.4 hPa South 4.8 km/h 11.3 km/h 80% 0 mm 62 W/m2
11:58 11.9 °C 8.6 °C 1008.4 hPa South 6.4 km/h 11.3 km/h 80% 0 mm 54 W/m2
12:04 11.9 °C 8.6 °C 1008.4 hPa SSW 6.4 km/h 6.4 km/h 80% 0 mm 51 W/m2
12:10 12.1 °C 8.7 °C 1008 hPa SW 4.8 km/h 12.9 km/h 80% 0 mm 47 W/m2
12:16 12.2 °C 8.8 °C 1008 hPa SSE 6.4 km/h 12.9 km/h 80% 0 mm 44 W/m2
12:22 12.2 °C 8.6 °C 1007.7 hPa SSW 6.4 km/h 8 km/h 79% 0 mm 39 W/m2
12:28 12.3 °C 8.8 °C 1007.7 hPa SSW 6.4 km/h 12.9 km/h 79% 0 mm 51 W/m2
12:36 12.4 °C 8.8 °C 1007.3 hPa South 6.4 km/h 11.3 km/h 79% 0 mm 56 W/m2
12:42 12.6 °C 9.1 °C 1007.3 hPa SSW 8 km/h 9.7 km/h 79% 0 mm 46 W/m2
12:48 12.6 °C 9.1 °C 1007.3 hPa SSW 8 km/h 9.7 km/h 79% 0 mm 49 W/m2
12:56 12.7 °C 9.1 °C 1007.3 hPa South 6.4 km/h 8 km/h 79% 0 mm 37 W/m2
13:04 12.6 °C 9.2 °C 1007.3 hPa SSE 4.8 km/h 6.4 km/h 80% 0 mm 42 W/m2
13:10 12.6 °C 9.2 °C 1007.3 hPa South 4.8 km/h 4.8 km/h 80% 0 mm 46 W/m2
13:16 12.4 °C 9.3 °C 1007.7 hPa SSE 4.8 km/h 8 km/h 81% 0 mm 33 W/m2
13:22 12.3 °C 9.3 °C 1007.7 hPa SSW 6.4 km/h 9.7 km/h 82% 0 mm 37 W/m2
13:28 12.3 °C 9.5 °C 1007.7 hPa South 6.4 km/h 9.7 km/h 83% 0 mm 28 W/m2
13:34 12.2 °C 9.6 °C 1007.7 hPa SSE 4.8 km/h 8 km/h 84% 0 mm 19 W/m2
13:40 12.1 °C 9.6 °C 1007.7 hPa SSW 4.8 km/h 6.4 km/h 85% 0 mm 12 W/m2
13:46 11.9 °C 9.7 °C 1007.7 hPa SSW 4.8 km/h 9.7 km/h 86% 0 mm 16 W/m2
13:52 11.9 °C 9.6 °C 1007.7 hPa South 4.8 km/h 11.3 km/h 86% 1.52 mm 21 W/m2
13:58 11.8 °C 9.7 °C 1007.7 hPa South 6.4 km/h 11.3 km/h 87% 4.32 mm 16 W/m2
14:04 11.8 °C 9.7 °C 1007.7 hPa SSE 6.4 km/h 6.4 km/h 87% 3.56 mm 25 W/m2
14:10 11.8 °C 9.8 °C 1007.7 hPa SSW 6.4 km/h 8 km/h 88% 5.08 mm 25 W/m2
14:16 11.7 °C 9.8 °C 1008 hPa South 6.4 km/h 8 km/h 88% 4.06 mm 11 W/m2
14:22 11.7 °C 9.9 °C 1007.7 hPa South 3.2 km/h 4.8 km/h 89% 3.81 mm 16 W/m2
14:28 11.6 °C 9.8 °C 1007.7 hPa SW 3.2 km/h 6.4 km/h 89% 3.3 mm 28 W/m2
14:36 11.5 °C 9.7 °C 1008 hPa WNW 3.2 km/h 4.8 km/h 89% 2.03 mm 14 W/m2
14:42 9.7 °C 7.3 °C 1008.4 hPa NNW 8 km/h 12.9 km/h 85% 1.52 mm 7 W/m2
14:48 8.3 °C 6.3 °C 1008.7 hPa West 14.5 km/h 14.5 km/h 87% 2.54 mm 5 W/m2
14:56 7.7 °C 6 °C 1009 hPa NNW 9.7 km/h 16.1 km/h 89% 8.89 mm 7 W/m2
15:04 7.3 °C 5.7 °C 1010 hPa NW 8 km/h 9.7 km/h 89% 3.56 mm 5 W/m2
15:10 7.1 °C 5.6 °C 1010.4 hPa WNW 4.8 km/h 4.8 km/h 90% 7.37 mm 5 W/m2
15:16 6.8 °C 5.3 °C 1010.4 hPa NW 6.4 km/h 9.7 km/h 90% 6.1 mm 5 W/m2
15:22 6.7 °C 5.2 °C 1010 hPa NW 3.2 km/h 4.8 km/h 90% 4.83 mm 7 W/m2
15:29 6.6 °C 5.2 °C 1009.4 hPa NW 1.6 km/h 4.8 km/h 91% 7.87 mm 12 W/m2
15:36 6.5 °C 5.1 °C 1009.4 hPa NW 1.6 km/h 3.2 km/h 91% 8.38 mm 25 W/m2
15:42 6.5 °C 5.1 °C 1009.7 hPa NW 1.6 km/h 1.6 km/h 91% 5.33 mm 21 W/m2
15:48 6.4 °C 5.1 °C 1008.7 hPa NW 1.6 km/h 3.2 km/h 91% 3.05 mm 21 W/m2
15:56 6.4 °C 5.2 °C 1009 hPa NW 1.6 km/h 3.2 km/h 92% 1.78 mm 32 W/m2
16:02 6.4 °C 5.2 °C 1009.7 hPa NW 1.6 km/h 1.6 km/h 92% 1.02 mm 18 W/m2
16:08 6.5 °C 5.3 °C 1010.4 hPa Calm   1.6 km/h 92% 0 mm 9 W/m2
16:14 6.4 °C 5.2 °C 1010.4 hPa Calm     92% 0 mm 0 W/m2
16:20 6.3 °C 5.1 °C 1010.4 hPa Calm   3.2 km/h 92% 0 mm 0 W/m2
16:26 6.3 °C 5.1 °C 1010.4 hPa NW 1.6 km/h 3.2 km/h 92% 0 mm 0 W/m2
16:32 6.3 °C 5.1 °C 1010.4 hPa Calm     92% 0 mm 0 W/m2
16:38 6.2 °C 4.9 °C 1010.4 hPa Calm     92% 0 mm 0 W/m2
16:44 6.1 °C 5.1 °C 1010 hPa NW 1.6 km/h 4.8 km/h 93% 0 mm 0 W/m2
16:50 6.1 °C 4.8 °C 1009.7 hPa NW 1.6 km/h 1.6 km/h 92% 0 mm 0 W/m2
16:56 5.9 °C 4.9 °C 1010.4 hPa Calm   1.6 km/h 93% 0 mm 0 W/m2
17:02 5.9 °C 4.8 °C 1010.7 hPa Calm     93% 0 mm 0 W/m2
17:08 5.9 °C 4.9 °C 1010.4 hPa Calm     93% 0 mm 0 W/m2
17:14 5.7 °C 4.7 °C 1010.4 hPa NW 1.6 km/h 4.8 km/h 93% 0 mm 0 W/m2
17:20 5.9 °C 4.8 °C 1010.7 hPa NW 1.6 km/h 1.6 km/h 93% 0 mm 0 W/m2
17:26 5.9 °C 4.9 °C 1010.7 hPa Calm   1.6 km/h 93% 0 mm 0 W/m2
17:32 6 °C 4.9 °C 1011.1 hPa Calm   3.2 km/h 93% 0 mm 0 W/m2
17:38 5.9 °C 4.9 °C 1011.1 hPa Calm   3.2 km/h 93% 0 mm 0 W/m2
17:44 6 °C 4.9 °C 1011.4 hPa Calm     93% 0 mm 0 W/m2
17:50 5.9 °C 4.9 °C 1011.4 hPa Calm     93% 0 mm 0 W/m2
17:56 5.9 °C 4.9 °C 1011.4 hPa Calm     93% 0 mm 0 W/m2
18:02 5.9 °C 4.8 °C 1011.7 hPa Calm     93% 0 mm 0 W/m2
18:08 5.8 °C 4.8 °C 1011.7 hPa Calm     93% 0 mm 0 W/m2
18:14 5.8 °C 4.7 °C 1012.1 hPa Calm     93% 0 mm 0 W/m2
18:20 5.9 °C 4.9 °C 1012.1 hPa NW 1.6 km/h 1.6 km/h 93% 0 mm 0 W/m2
18:26 5.9 °C 4.9 °C 1012.4 hPa NW 1.6 km/h 1.6 km/h 93% 0 mm 0 W/m2
18:32 5.9 °C 4.8 °C 1012.4 hPa NW 3.2 km/h 4.8 km/h 93% 0 mm 0 W/m2
18:38 5.7 °C 4.7 °C 1012.8 hPa WNW 4.8 km/h 9.7 km/h 93% 0 mm 0 W/m2
18:44 5.6 °C 4.5 °C 1012.8 hPa NW 4.8 km/h 8 km/h 93% 0 mm 0 W/m2
18:50 5.3 °C 4.3 °C 1013.1 hPa WNW 4.8 km/h 6.4 km/h 93% 0 mm 0 W/m2
18:56 5.2 °C 4.1 °C 1013.1 hPa WSW 4.8 km/h 11.3 km/h 93% 0 mm 0 W/m2
19:02 5.1 °C 3.9 °C 1013.4 hPa WNW 3.2 km/h 8 km/h 92% 0 mm 0 W/m2
19:08 4.9 °C 3.8 °C 1013.8 hPa NW 3.2 km/h 8 km/h 92% 0 mm 0 W/m2
19:14 4.8 °C 3.7 °C 1014.1 hPa NW 4.8 km/h 4.8 km/h 92% 0 mm 0 W/m2
19:20 4.6 °C 3.4 °C 1014.1 hPa WNW 6.4 km/h 6.4 km/h 92% 0 mm 0 W/m2
19:26 4.4 °C 3.3 °C 1014.4 hPa WNW 4.8 km/h 6.4 km/h 92% 0 mm 0 W/m2
19:32 4.4 °C 3.1 °C 1014.4 hPa WNW 6.4 km/h 9.7 km/h 91% 0 mm 0 W/m2
19:38 4.3 °C 3.1 °C 1015.1 hPa WNW 6.4 km/h 9.7 km/h 92% 0 mm 0 W/m2
19:44 4.2 °C 3 °C 1015.1 hPa WNW 4.8 km/h 4.8 km/h 92% 0 mm 0 W/m2
19:50 4.1 °C 2.7 °C 1015.5 hPa WNW 6.4 km/h 6.4 km/h 91% 0 mm 0 W/m2
19:56 4 °C 2.7 °C 1015.5 hPa WNW 6.4 km/h 9.7 km/h 91% 0 mm 0 W/m2
20:03 4 °C 2.7 °C 1015.8 hPa West 8 km/h 8 km/h 91% 0 mm 0 W/m2
20:08 3.9 °C 2.6 °C 1015.8 hPa WSW 6.4 km/h 8 km/h 91% 0 mm 0 W/m2
20:16 3.9 °C 2.6 °C 1016.1 hPa West 3.2 km/h 8 km/h 91% 0 mm 0 W/m2
20:22 3.9 °C 2.6 °C 1016.1 hPa WSW 3.2 km/h 4.8 km/h 91% 0 mm 0 W/m2
20:28 3.8 °C 2.5 °C 1016.5 hPa NW 4.8 km/h 8 km/h 91% 0 mm 0 W/m2
20:34 3.8 °C 2.3 °C 1016.5 hPa WNW 4.8 km/h 6.4 km/h 90% 0 mm 0 W/m2
20:40 3.8 °C 2.3 °C 1016.8 hPa West 4.8 km/h 4.8 km/h 90% 0 mm 0 W/m2
20:46 3.8 °C 2.3 °C 1017.2 hPa WNW 4.8 km/h 4.8 km/h 90% 0 mm 0 W/m2
20:52 3.7 °C 2 °C 1017.5 hPa NW 4.8 km/h 9.7 km/h 89% 0 mm 0 W/m2
20:58 3.6 °C 1.8 °C 1017.5 hPa WNW 6.4 km/h 14.5 km/h 88% 0 mm 0 W/m2
21:04 3.6 °C 1.8 °C 1017.8 hPa NW 6.4 km/h 6.4 km/h 88% 0 mm 0 W/m2
21:10 3.5 °C 1.7 °C 1017.8 hPa WNW 4.8 km/h 4.8 km/h 88% 0 mm 0 W/m2
21:16 3.4 °C 1.5 °C 1018.2 hPa NW 6.4 km/h 11.3 km/h 87% 0 mm 0 W/m2
21:22 3.4 °C 1.4 °C 1018.2 hPa WNW 6.4 km/h 8 km/h 87% 0 mm 0 W/m2
21:28 3.3 °C 1.4 °C 1018.5 hPa West 6.4 km/h 8 km/h 87% 0 mm 0 W/m2
21:34 3.3 °C 1.3 °C 1018.5 hPa WNW 4.8 km/h 6.4 km/h 87% 0 mm 0 W/m2
21:40 3.2 °C 1.4 °C 1018.8 hPa WNW 4.8 km/h 4.8 km/h 88% 0 mm 0 W/m2
21:46 3.1 °C 1.3 °C 1018.8 hPa NW 4.8 km/h 4.8 km/h 88% 0 mm 0 W/m2
21:52 3 °C 1.2 °C 1019.2 hPa West 4.8 km/h 8 km/h 88% 0 mm 0 W/m2
22:00 2.8 °C 1.2 °C 1019.2 hPa NNW 6.4 km/h 6.4 km/h 89% 0 mm 0 W/m2
22:06 2.7 °C 1.1 °C 1019.2 hPa WNW 6.4 km/h 8 km/h 89% 0 mm 0 W/m2
22:12 2.6 °C 0.9 °C 1019.2 hPa WNW 4.8 km/h 9.7 km/h 89% 0 mm 0 W/m2
22:18 2.5 °C 0.9 °C 1019.2 hPa WNW 4.8 km/h 9.7 km/h 89% 0 mm 0 W/m2
22:24 2.4 °C 0.8 °C 1019.2 hPa WNW 4.8 km/h 4.8 km/h 89% 0 mm 0 W/m2
22:30 2.4 °C 0.9 °C 1019.9 hPa WNW 4.8 km/h 4.8 km/h 90% 0 mm 0 W/m2
22:36 2.3 °C 0.8 °C 1019.9 hPa West 4.8 km/h 9.7 km/h 90% 0 mm 0 W/m2
22:42 2.3 °C 0.8 °C 1019.9 hPa WNW 4.8 km/h 8 km/h 90% 0 mm 0 W/m2
22:48 2.2 °C 0.8 °C 1020.2 hPa WNW 4.8 km/h 8 km/h 90% 0 mm 0 W/m2
22:54 2.2 °C 0.7 °C 1020.2 hPa West 4.8 km/h 6.4 km/h 90% 0 mm 0 W/m2
23:00 2.1 °C 0.7 °C 1019.9 hPa West 3.2 km/h 3.2 km/h 90% 0 mm 0 W/m2
23:06 2.1 °C 0.7 °C 1019.9 hPa WNW 3.2 km/h 6.4 km/h 91% 0 mm 0 W/m2
23:12 2.1 °C 0.7 °C 1020.2 hPa WNW 4.8 km/h 4.8 km/h 91% 0 mm 0 W/m2
23:18 2 °C 0.7 °C 1020.2 hPa West 4.8 km/h 6.4 km/h 91% 0 mm 0 W/m2
23:24 2 °C 0.7 °C 1020.5 hPa WNW 4.8 km/h 9.7 km/h 91% 0 mm 0 W/m2
23:30 1.9 °C 0.6 °C 1020.5 hPa WNW 4.8 km/h 4.8 km/h 91% 0 mm 0 W/m2
23:36 1.9 °C 0.6 °C 1020.9 hPa WNW 3.2 km/h 4.8 km/h 91% 0 mm 0 W/m2
23:42 1.9 °C 0.6 °C 1020.9 hPa NW 3.2 km/h 4.8 km/h 91% 0 mm 0 W/m2
23:48 1.8 °C 0.4 °C 1020.9 hPa NW 4.8 km/h 6.4 km/h 91% 0 mm 0 W/m2
23:56 1.7 °C 0.3 °C 1021.2 hPa NNW 4.8 km/h 9.7 km/h 91% 0 mm 0 W/m2
Country Meadow, Clay, NY, USA
Compliments of Weather Underground - 2 mb